Yuukimaru No.8 — JD2477 — position and weather

sailwx.info

Track history (hours):
 
Tides and Currents Weather Stations Pressure Air Temp Water Temp Dewpoint Dewpoint Depression Visibility Wind Speed Wind Dir Waves Ship Positions

Yuukimaru No.8

Last reported at 2017-Sep-12 00:56 UTC. Time now 2017-Sep-20 18:04 UTC.
Position N 34°36' E 135°03'.
Warning: this ship's position is 8 days out of date.

Length 75 m; draft 4.7 m.

Type: Ship (hazmat cat D). MMSI: 431000298.

Date/timePositionNaut miles runAvg speedWind from/ knotsBaromVisibWave heightAir tempDewpointWater temp
2017-Sep-12 00:56N 34°36' E 135°03'510.6
2017-Sep-12 00:30N 34°36' E 135°09'5 9.9
2017-Sep-12 00:00N 34°36' E 135°15'5 9.8
2017-Sep-11 23:30N 34°37' E 135°21'4 7.3
2017-Sep-11 22:58N 34°35' E 135°25'0 0.1
2017-Sep-11 22:30N 34°35' E 135°25'0 0.1
2017-Sep-11 22:00N 34°35' E 135°25'3 5.4
2017-Sep-11 21:30N 34°35' E 135°22'0 0.2
2017-Sep-11 21:00N 34°35' E 135°22'0 0.1
2017-Sep-11 20:30N 34°35' E 135°22'0 0.0
2017-Sep-11 20:00N 34°35' E 135°22'0 0.1
2017-Sep-11 19:28N 34°35' E 135°22'4 9.1
2017-Sep-11 19:00N 34°32' E 135°18'510.3
2017-Sep-11 18:30N 34°29' E 135°14'510.2
2017-Sep-11 18:00N 34°25' E 135°10'610.4
2017-Sep-11 17:27N 34°20' E 135°05'510.1
2017-Sep-11 16:59N 34°16' E 135°03'4 7.4
2017-Sep-11 16:30N 34°15' E 135°07'0 0.2
2017-Sep-11 16:00N 34°15' E 135°07'0 0.0
2017-Sep-11 15:30N 34°15' E 135°07'0 0.0
2017-Sep-11 15:00N 34°15' E 135°07'0 0.0
2017-Sep-11 14:30N 34°15' E 135°07'0 0.0
2017-Sep-11 14:00N 34°15' E 135°07'0 0.2
2017-Sep-11 13:30N 34°15' E 135°07'0 0.0
2017-Sep-11 13:00N 34°15' E 135°07'0 0.0
2017-Sep-11 12:30N 34°15' E 135°07'0 0.0
2017-Sep-11 12:00N 34°15' E 135°07'0 0.0
2017-Sep-11 11:30N 34°15' E 135°07'0 0.0
2017-Sep-11 11:00N 34°15' E 135°07'0 0.0
2017-Sep-11 10:30N 34°15' E 135°07'0 0.0
2017-Sep-11 10:00N 34°15' E 135°07'0 0.0
2017-Sep-11 09:30N 34°15' E 135°07'0 0.0
2017-Sep-11 09:00N 34°15' E 135°07'0 0.0
2017-Sep-11 08:30N 34°15' E 135°07'0 0.2
2017-Sep-11 08:00N 34°15' E 135°07'1 1.1
2017-Sep-11 07:30N 34°15' E 135°06'0 0.0
2017-Sep-11 07:00N 34°15' E 135°06'0 0.0
2017-Sep-11 06:30N 34°15' E 135°06'0 0.1
2017-Sep-11 06:00N 34°15' E 135°06'2 3.9
2017-Sep-11 05:30N 34°14' E 135°04'  
2017-Sep-05 04:22N 34°26' E 135°05'512.1
2017-Sep-05 03:59N 34°30' E 135°09'511.4
2017-Sep-05 03:30N 34°34' E 135°14'510.8
2017-Sep-05 03:00N 34°38' E 135°17'3 5.8
2017-Sep-05 02:30N 34°41' E 135°17'0 0.0
2017-Sep-05 02:01N 34°41' E 135°17'1 2.8
2017-Sep-05 01:30N 34°40' E 135°19'0 0.4
2017-Sep-05 01:00N 34°40' E 135°19'0 0.0
2017-Sep-05 00:30N 34°40' E 135°19'0 0.0
2017-Sep-04 23:40N 34°40' E 135°19'0 0.0
2017-Sep-04 23:30N 34°40' E 135°19'0 0.0
2017-Sep-04 23:00N 34°40' E 135°19'0 0.3
2017-Sep-04 22:31N 34°40' E 135°19'5 9.8
2017-Sep-04 22:00N 34°37' E 135°14'510.5
2017-Sep-04 21:30N 34°35' E 135°08'5 9.8
2017-Sep-04 21:00N 34°36' E 135°02'5 9.1
2017-Sep-04 20:26N 34°36' E 134°56'  
2017-Sep-02 14:24N 34°40' E 134°48'4 8.4
2017-Sep-02 13:57N 34°39' E 134°52'4 8.0
2017-Sep-02 13:25N 34°37' E 134°57'4 9.3
2017-Sep-02 13:00N 34°37' E 135°01'5 9.1
2017-Sep-02 12:30N 34°34' E 135°05'5 9.8
2017-Sep-02 11:59N 34°29' E 135°05'5 9.2
2017-Sep-02 11:26N 34°24' E 135°04'4 9.5
2017-Sep-02 11:00N 34°20' E 135°04'4 8.8
2017-Sep-02 10:30N 34°15' E 135°03'3 6.8
2017-Sep-02 10:01N 34°15' E 135°07'0 0.0
2017-Sep-02 09:31N 34°15' E 135°07'0 0.0
2017-Sep-02 09:01N 34°15' E 135°07'0 0.0
2017-Sep-02 08:31N 34°15' E 135°07'0 0.0
2017-Sep-02 08:01N 34°15' E 135°07'0 0.0
2017-Sep-02 07:30N 34°15' E 135°07'0 0.0
2017-Sep-02 07:00N 34°15' E 135°07'0 0.0
2017-Sep-02 06:31N 34°15' E 135°07'0 0.0
2017-Sep-02 05:43N 34°15' E 135°07'0 0.0
2017-Sep-02 05:30N 34°15' E 135°07'0 0.0
2017-Sep-02 05:00N 34°15' E 135°07'0 0.0
2017-Sep-02 04:31N 34°15' E 135°07'0 0.0
2017-Sep-02 04:01N 34°15' E 135°07'0 0.0
2017-Sep-02 02:43N 34°15' E 135°07'0 0.1
2017-Sep-02 02:30N 34°15' E 135°07'2 4.0
2017-Sep-02 02:01N 34°15' E 135°05'0 0.5
2017-Sep-02 01:31N 34°15' E 135°04'0 0.0
2017-Sep-02 01:00N 34°15' E 135°04'  
Track history (hours):
 
Tides and Currents Weather Stations Pressure Air Temp Water Temp Dewpoint Dewpoint Depression Visibility Wind Speed Wind Dir Waves Ship Positions

Yuukimaru No.8

Last reported at 2017-Sep-12 00:56 UTC. Time now 2017-Sep-20 18:04 UTC.
Position N 34°36' E 135°03'.
Warning: this ship's position is 8 days out of date.

Length 75 m; draft 4.7 m.

Type: Ship (hazmat cat D). MMSI: 431000298.

Date/timePositionNaut miles runAvg speedWind from/ knotsBaromVisibWave heightAir tempDewpointWater temp
2017-Sep-12 00:56N 34°36' E 135°03'510.6
2017-Sep-12 00:30N 34°36' E 135°09'5 9.9
2017-Sep-12 00:00N 34°36' E 135°15'5 9.8
2017-Sep-11 23:30N 34°37' E 135°21'4 7.3
2017-Sep-11 22:58N 34°35' E 135°25'0 0.1
2017-Sep-11 22:30N 34°35' E 135°25'0 0.1
2017-Sep-11 22:00N 34°35' E 135°25'3 5.4
2017-Sep-11 21:30N 34°35' E 135°22'0 0.2
2017-Sep-11 21:00N 34°35' E 135°22'0 0.1
2017-Sep-11 20:30N 34°35' E 135°22'0 0.0
2017-Sep-11 20:00N 34°35' E 135°22'0 0.1
2017-Sep-11 19:28N 34°35' E 135°22'4 9.1
2017-Sep-11 19:00N 34°32' E 135°18'510.3
2017-Sep-11 18:30N 34°29' E 135°14'510.2
2017-Sep-11 18:00N 34°25' E 135°10'610.4
2017-Sep-11 17:27N 34°20' E 135°05'510.1
2017-Sep-11 16:59N 34°16' E 135°03'4 7.4
2017-Sep-11 16:30N 34°15' E 135°07'0 0.2
2017-Sep-11 16:00N 34°15' E 135°07'0 0.0
2017-Sep-11 15:30N 34°15' E 135°07'0 0.0
2017-Sep-11 15:00N 34°15' E 135°07'0 0.0
2017-Sep-11 14:30N 34°15' E 135°07'0 0.0
2017-Sep-11 14:00N 34°15' E 135°07'0 0.2
2017-Sep-11 13:30N 34°15' E 135°07'0 0.0
2017-Sep-11 13:00N 34°15' E 135°07'0 0.0
2017-Sep-11 12:30N 34°15' E 135°07'0 0.0
2017-Sep-11 12:00N 34°15' E 135°07'0 0.0
2017-Sep-11 11:30N 34°15' E 135°07'0 0.0
2017-Sep-11 11:00N 34°15' E 135°07'0 0.0
2017-Sep-11 10:30N 34°15' E 135°07'0 0.0
2017-Sep-11 10:00N 34°15' E 135°07'0 0.0
2017-Sep-11 09:30N 34°15' E 135°07'0 0.0
2017-Sep-11 09:00N 34°15' E 135°07'0 0.0
2017-Sep-11 08:30N 34°15' E 135°07'0 0.2
2017-Sep-11 08:00N 34°15' E 135°07'1 1.1
2017-Sep-11 07:30N 34°15' E 135°06'0 0.0
2017-Sep-11 07:00N 34°15' E 135°06'0 0.0
2017-Sep-11 06:30N 34°15' E 135°06'0 0.1
2017-Sep-11 06:00N 34°15' E 135°06'2 3.9
2017-Sep-11 05:30N 34°14' E 135°04'  
2017-Sep-05 04:22N 34°26' E 135°05'512.1
2017-Sep-05 03:59N 34°30' E 135°09'511.4
2017-Sep-05 03:30N 34°34' E 135°14'510.8
2017-Sep-05 03:00N 34°38' E 135°17'3 5.8
2017-Sep-05 02:30N 34°41' E 135°17'0 0.0
2017-Sep-05 02:01N 34°41' E 135°17'1 2.8
2017-Sep-05 01:30N 34°40' E 135°19'0 0.4
2017-Sep-05 01:00N 34°40' E 135°19'0 0.0
2017-Sep-05 00:30N 34°40' E 135°19'0 0.0
2017-Sep-04 23:40N 34°40' E 135°19'0 0.0
2017-Sep-04 23:30N 34°40' E 135°19'0 0.0
2017-Sep-04 23:00N 34°40' E 135°19'0 0.3
2017-Sep-04 22:31N 34°40' E 135°19'5 9.8
2017-Sep-04 22:00N 34°37' E 135°14'510.5
2017-Sep-04 21:30N 34°35' E 135°08'5 9.8
2017-Sep-04 21:00N 34°36' E 135°02'5 9.1
2017-Sep-04 20:26N 34°36' E 134°56'  
2017-Sep-02 14:24N 34°40' E 134°48'4 8.4
2017-Sep-02 13:57N 34°39' E 134°52'4 8.0
2017-Sep-02 13:25N 34°37' E 134°57'4 9.3
2017-Sep-02 13:00N 34°37' E 135°01'5 9.1
2017-Sep-02 12:30N 34°34' E 135°05'5 9.8
2017-Sep-02 11:59N 34°29' E 135°05'5 9.2
2017-Sep-02 11:26N 34°24' E 135°04'4 9.5
2017-Sep-02 11:00N 34°20' E 135°04'4 8.8
2017-Sep-02 10:30N 34°15' E 135°03'3 6.8
2017-Sep-02 10:01N 34°15' E 135°07'0 0.0
2017-Sep-02 09:31N 34°15' E 135°07'0 0.0
2017-Sep-02 09:01N 34°15' E 135°07'0 0.0
2017-Sep-02 08:31N 34°15' E 135°07'0 0.0
2017-Sep-02 08:01N 34°15' E 135°07'0 0.0
2017-Sep-02 07:30N 34°15' E 135°07'0 0.0
2017-Sep-02 07:00N 34°15' E 135°07'0 0.0
2017-Sep-02 06:31N 34°15' E 135°07'0 0.0
2017-Sep-02 05:43N 34°15' E 135°07'0 0.0
2017-Sep-02 05:30N 34°15' E 135°07'0 0.0
2017-Sep-02 05:00N 34°15' E 135°07'0 0.0
2017-Sep-02 04:31N 34°15' E 135°07'0 0.0
2017-Sep-02 04:01N 34°15' E 135°07'0 0.0
2017-Sep-02 02:43N 34°15' E 135°07'0 0.1
2017-Sep-02 02:30N 34°15' E 135°07'2 4.0
2017-Sep-02 02:01N 34°15' E 135°05'0 0.5
2017-Sep-02 01:31N 34°15' E 135°04'0 0.0
2017-Sep-02 01:00N 34°15' E 135°04'  

Dump ship's entire track history